Terminal Aerodrome Forecast
Issued by NWS Cleveland, OH

Home | Current Version | Previous Version | Text Only | Print | Product List | Glossary Off
Versions: 1 2 3 4 5 6 7 8 9 10 11 12 13 14 15 16 17 18 19

000
FTUS41 KCLE 210200 AAA
TAFTOL
TAF AMD
KTOL 210203Z 2102/2124 27006KT P6SM SCT025 OVC050
      TEMPO 2103/2105 -SHRA SCT012 OVC025
     FM210600 32008KT P6SM OVC015
     FM211400 33012G20KT P6SM SCT015 OVC025=

USA.gov is the U.S. government's official web portal to all federal, state and local government web resources and services.